Time;durP1;ratioP1;P1;durP2;ratioP2;P2;SDS_P1;SDS_P2;PMS_P1;PMS_P2;Temp;Humidity;BMP_temperature;BMP_pressure;BME280_temperature;BME280_humidity;BME280_pressure;Samples;Min_cycle;Max_cycle;Signal;HPM_P1;HPM_P2
2021/08/20 00:01:43;;;;;;;16.27;7.23;;;;;;;18.44;56.66;98984.97;125677;1093;103015;-71
2021/08/20 00:04:14;;;;;;;17.67;7.37;;;;;;;18.44;56.30;98988.52;125697;1093;103064;-71
2021/08/20 00:06:42;;;;;;;21.83;7.80;;;;;;;18.43;56.57;98984.14;125703;1093;103020;-70
2021/08/20 00:09:11;;;;;;;17.07;7.30;;;;;;;18.42;56.82;98990.53;125703;1093;102913;-71
2021/08/20 00:11:42;;;;;;;18.03;7.43;;;;;;;18.41;56.55;98987.98;125691;1093;103216;-71
2021/08/20 00:14:10;;;;;;;17.13;7.03;;;;;;;18.39;56.52;98992.70;125632;1092;103174;-70
2021/08/20 00:16:44;;;;;;;17.83;7.17;;;;;;;18.37;56.41;98981.24;125726;1093;102916;-71
2021/08/20 00:19:15;;;;;;;18.67;6.77;;;;;;;18.35;56.72;98986.80;125679;1094;102908;-70
2021/08/20 00:21:44;;;;;;;17.43;7.33;;;;;;;18.33;56.35;98982.61;125715;1093;102916;-71
2021/08/20 00:24:16;;;;;;;19.10;7.37;;;;;;;18.34;56.88;98974.35;125695;1093;103061;-70
2021/08/20 00:26:47;;;;;;;21.80;7.47;;;;;;;18.35;56.74;98977.88;125658;1093;103097;-70
2021/08/20 00:29:15;;;;;;;17.00;7.37;;;;;;;18.33;56.98;98967.28;125710;1093;102932;-71
2021/08/20 00:31:43;;;;;;;17.50;6.90;;;;;;;18.32;57.00;98979.05;125676;1093;102935;-72
2021/08/20 00:34:12;;;;;;;18.97;7.90;;;;;;;18.31;56.97;98974.67;125710;1092;102935;-71
2021/08/20 00:36:40;;;;;;;17.37;6.53;;;;;;;18.34;56.86;98970.83;125697;1092;103163;-74
2021/08/20 00:39:08;;;;;;;17.10;7.00;;;;;;;18.34;56.92;98974.35;125644;1093;102920;-71
2021/08/20 00:41:46;;;;;;;17.03;7.07;;;;;;;18.33;57.00;98974.53;125737;1093;103029;-71
2021/08/20 00:44:18;;;;;;;18.07;7.77;;;;;;;18.32;56.95;98987.13;125665;1093;103019;-71
2021/08/20 00:46:49;;;;;;;19.03;7.40;;;;;;;18.33;57.36;98969.97;125688;1093;103127;-71
2021/08/20 00:49:17;;;;;;;16.27;6.87;;;;;;;18.33;57.47;98971.84;125672;1093;102913;-71
2021/08/20 00:51:51;;;;;;;18.93;7.77;;;;;;;18.36;57.44;98974.17;125671;1093;103047;-71
2021/08/20 00:54:22;;;;;;;16.63;6.53;;;;;;;18.37;57.33;98970.47;125694;1093;103061;-71
2021/08/20 00:56:50;;;;;;;17.37;6.97;;;;;;;18.37;57.08;98970.47;125676;1095;103185;-70
2021/08/20 00:59:25;;;;;;;19.87;7.80;;;;;;;18.37;57.19;98968.64;125718;1093;102913;-72
2021/08/20 01:01:53;;;;;;;17.30;6.80;;;;;;;18.33;57.45;98971.84;125753;1093;102999;-68
2021/08/20 01:05:03;;;;;;;17.00;6.70;;;;;;;18.32;57.46;98967.05;111014;1213;635526;-72
2021/08/20 01:07:37;;;;;;;18.30;6.90;;;;;;;18.18;57.39;98968.52;112251;1198;93876;-70
2021/08/20 01:10:10;;;;;;;17.00;6.50;;;;;;;17.99;57.34;98970.52;112214;1206;93947;-71
2021/08/20 01:12:38;;;;;;;19.80;8.60;;;;;;;17.81;57.62;98970.48;112249;1205;107090;-70
2021/08/20 01:15:06;;;;;;;17.20;7.20;;;;;;;17.70;57.72;98967.14;112268;1205;93626;-71
2021/08/20 01:17:34;;;;;;;18.30;7.30;;;;;;;17.61;57.89;98970.45;112218;1205;107437;-71
2021/08/20 01:20:09;;;;;;;19.50;7.60;;;;;;;17.54;58.07;98972.45;112220;1205;94264;-71
2021/08/20 01:22:41;;;;;;;20.70;7.80;;;;;;;17.50;58.19;98973.70;112037;1198;93918;-70
2021/08/20 01:25:12;;;;;;;17.10;7.40;;;;;;;17.48;58.50;98969.27;112235;1205;106868;-70
2021/08/20 01:27:40;;;;;;;16.40;6.90;;;;;;;17.47;58.51;98971.52;112229;1205;93929;-70
2021/08/20 01:30:08;;;;;;;20.30;7.40;;;;;;;17.46;58.60;98968.66;112213;1206;107403;-70
2021/08/20 01:32:36;;;;;;;20.90;7.70;;;;;;;17.46;58.66;98969.47;112202;1206;94739;-71
2021/08/20 01:35:06;;;;;;;19.30;7.90;;;;;;;17.49;58.92;98971.17;112113;1206;94366;-73
2021/08/20 01:37:34;;;;;;;19.60;7.40;;;;;;;17.52;58.83;98968.73;112122;1199;108308;-71
2021/08/20 01:40:05;;;;;;;18.40;7.50;;;;;;;17.53;58.65;98968.96;112182;1206;93942;-70
2021/08/20 01:42:33;;;;;;;17.40;7.00;;;;;;;17.54;58.87;98972.75;112183;1199;108701;-70
2021/08/20 01:45:01;;;;;;;18.80;7.20;;;;;;;17.58;58.91;98973.86;112195;1197;94873;-70
2021/08/20 01:47:28;;;;;;;16.30;6.90;;;;;;;17.61;58.97;98969.08;112228;1197;94860;-70
2021/08/20 01:49:56;;;;;;;19.40;7.60;;;;;;;17.65;58.95;98966.85;112260;1204;108372;-70
2021/08/20 01:52:24;;;;;;;19.50;6.90;;;;;;;17.68;59.10;98964.89;112258;1198;94918;-70
2021/08/20 01:54:52;;;;;;;16.60;6.90;;;;;;;17.69;59.15;98961.53;112176;1204;107540;-71
2021/08/20 01:57:20;;;;;;;15.80;6.50;;;;;;;17.72;59.14;98962.66;112187;1199;94873;-71
2021/08/20 01:59:47;;;;;;;18.50;7.40;;;;;;;17.75;59.06;98963.83;112212;1198;95092;-75
2021/08/20 02:02:16;;;;;;;17.10;7.10;;;;;;;17.78;59.21;98962.58;112140;1204;109416;-71
2021/08/20 02:04:47;;;;;;;18.50;7.50;;;;;;;17.81;59.30;98957.98;112214;1199;95584;-72
2021/08/20 02:07:15;;;;;;;16.90;7.10;;;;;;;17.83;59.20;98958.86;112218;1204;107630;-71
2021/08/20 02:09:47;;;;;;;17.70;7.00;;;;;;;17.84;59.26;98957.80;112240;1198;94236;-71
2021/08/20 02:12:19;;;;;;;19.60;7.00;;;;;;;17.86;59.26;98954.08;112274;1196;95001;-72
2021/08/20 02:14:47;;;;;;;17.00;6.50;;;;;;;17.88;59.26;98956.77;112275;1204;108221;-71
2021/08/20 02:17:14;;;;;;;17.00;7.10;;;;;;;17.89;59.33;98951.66;112301;1196;94994;-71
2021/08/20 02:19:42;;;;;;;16.10;6.20;;;;;;;17.90;59.34;98952.78;112272;1205;106005;-71
2021/08/20 02:22:10;;;;;;;17.40;7.50;;;;;;;17.91;59.41;98954.69;112291;1198;95001;-72
2021/08/20 02:24:38;;;;;;;16.80;7.30;;;;;;;17.92;59.57;98955.95;112301;1198;93918;-70
2021/08/20 02:27:05;;;;;;;16.80;6.40;;;;;;;17.94;59.46;98949.59;112267;1205;108356;-70
2021/08/20 02:29:33;;;;;;;15.60;6.50;;;;;;;17.95;59.46;98947.98;112316;1198;94971;-70
2021/08/20 02:32:06;;;;;;;17.90;7.00;;;;;;;17.94;59.58;98950.15;112173;1204;108390;-70
2021/08/20 02:34:34;;;;;;;17.00;7.10;;;;;;;17.95;59.42;98954.06;112163;1205;94875;-70
2021/08/20 02:37:01;;;;;;;18.40;7.10;;;;;;;17.96;59.62;98953.66;112161;1200;94973;-68
2021/08/20 02:39:30;;;;;;;15.90;6.70;;;;;;;17.98;59.61;98955.30;112208;1205;109814;-74
2021/08/20 02:41:58;;;;;;;17.30;7.00;;;;;;;17.98;59.56;98953.72;112187;1205;95312;-70
2021/08/20 02:44:26;;;;;;;16.20;6.70;;;;;;;17.98;59.68;98954.61;112247;1205;107155;-68
2021/08/20 02:46:54;;;;;;;16.40;6.90;;;;;;;17.99;59.64;98956.30;112214;1199;95070;-70
2021/08/20 02:49:22;;;;;;;15.30;6.70;;;;;;;18.00;59.81;98956.91;112223;1198;93925;-69
2021/08/20 02:51:50;;;;;;;16.40;6.30;;;;;;;18.00;59.60;98956.27;112186;1205;108435;-70
2021/08/20 02:54:18;;;;;;;15.40;6.40;;;;;;;17.99;59.74;98958.08;112268;1198;94881;-70
2021/08/20 02:56:45;;;;;;;17.90;6.30;;;;;;;18.00;59.72;98956.41;112162;1205;107541;-70
2021/08/20 02:59:13;;;;;;;16.60;6.60;;;;;;;17.99;59.86;98954.84;112238;1197;94009;-72
2021/08/20 03:01:42;;;;;;;15.80;6.60;;;;;;;17.97;59.63;98953.67;112125;1198;94808;-71
2021/08/20 03:04:11;;;;;;;16.50;6.30;;;;;;;17.95;59.82;98956.52;112132;1199;108503;-70
2021/08/20 03:06:39;;;;;;;15.10;6.30;;;;;;;17.95;59.86;98955.04;112126;1205;95107;-71
2021/08/20 03:09:07;;;;;;;19.10;7.20;;;;;;;17.97;59.87;98957.23;112117;1205;107556;-70
2021/08/20 03:11:35;;;;;;;15.90;6.50;;;;;;;17.99;60.01;98957.60;112176;1204;94958;-70
2021/08/20 03:14:03;;;;;;;14.70;6.30;;;;;;;18.00;59.95;98959.44;112124;1198;95010;-70
2021/08/20 03:16:31;;;;;;;13.70;6.50;;;;;;;18.01;59.90;98957.39;112190;1204;108413;-70
2021/08/20 03:19:00;;;;;;;14.60;6.10;;;;;;;18.00;59.96;98962.09;112260;1205;95432;-71
2021/08/20 03:21:28;;;;;;;18.30;6.70;;;;;;;17.98;59.97;98961.19;112207;1205;106459;-71
2021/08/20 03:23:56;;;;;;;17.10;6.10;;;;;;;17.98;59.88;98966.41;112295;1205;93879;-70
2021/08/20 03:26:24;;;;;;;15.50;6.30;;;;;;;17.97;59.95;98964.94;112249;1198;95589;-72
2021/08/20 03:28:53;;;;;;;15.60;6.10;;;;;;;17.97;60.09;98964.20;112280;1205;108429;-70
2021/08/20 03:31:21;;;;;;;14.90;6.10;;;;;;;17.98;60.02;98963.59;112272;1204;93930;-70
2021/08/20 03:33:49;;;;;;;15.50;5.80;;;;;;;17.99;60.17;98970.15;112267;1198;107432;-72
2021/08/20 03:36:17;;;;;;;15.30;6.60;;;;;;;17.98;60.19;98971.44;112247;1198;94896;-70
2021/08/20 03:38:45;;;;;;;14.30;6.30;;;;;;;17.97;60.26;98974.42;112252;1198;93999;-70
2021/08/20 03:41:13;;;;;;;15.30;6.30;;;;;;;17.92;60.17;98976.36;112278;1204;108449;-70
2021/08/20 03:43:40;;;;;;;16.20;7.00;;;;;;;17.85;60.22;98976.57;112262;1205;94025;-72
2021/08/20 03:46:09;;;;;;;15.70;6.70;;;;;;;17.82;60.21;98979.34;112171;1199;108052;-68
2021/08/20 03:48:38;;;;;;;15.40;6.40;;;;;;;17.81;60.40;98982.90;112186;1204;94971;-69
2021/08/20 03:51:05;;;;;;;13.30;5.80;;;;;;;17.83;60.33;98983.48;112213;1204;95035;-70
2021/08/20 03:53:33;;;;;;;18.60;6.40;;;;;;;17.84;60.42;98990.88;112188;1204;109059;-71
2021/08/20 03:56:01;;;;;;;17.00;6.90;;;;;;;17.84;60.47;98989.58;112247;1204;94986;-71
2021/08/20 03:58:29;;;;;;;18.60;6.60;;;;;;;17.84;60.55;98990.25;112229;1204;107820;-67
2021/08/20 04:00:57;;;;;;;15.60;6.10;;;;;;;17.85;60.74;98992.70;112231;1198;94973;-70
2021/08/20 04:03:25;;;;;;;14.10;5.90;;;;;;;17.85;60.68;98991.27;112217;1198;93850;-70
2021/08/20 04:05:54;;;;;;;15.60;6.20;;;;;;;17.84;60.48;98993.55;112118;1198;108461;-71
2021/08/20 04:08:21;;;;;;;14.40;6.40;;;;;;;17.82;60.59;98997.09;112200;1205;94905;-71
2021/08/20 04:10:49;;;;;;;15.30;6.10;;;;;;;17.80;60.65;98995.97;112179;1204;108255;-71
2021/08/20 04:13:18;;;;;;;18.40;6.50;;;;;;;17.72;60.40;99001.38;112202;1198;95042;-70
2021/08/20 04:15:46;;;;;;;17.10;6.30;;;;;;;17.63;60.75;99005.63;112229;1198;94971;-69
2021/08/20 04:18:14;;;;;;;16.50;6.80;;;;;;;17.58;60.89;99009.16;112264;1204;108351;-70
2021/08/20 04:20:42;;;;;;;16.30;6.10;;;;;;;17.57;60.98;99010.84;112247;1204;94899;-70
2021/08/20 04:23:11;;;;;;;17.30;7.10;;;;;;;17.54;60.69;99012.94;112204;1204;107384;-71
2021/08/20 04:25:39;;;;;;;17.50;6.80;;;;;;;17.45;60.73;99014.73;112157;1198;94913;-69
2021/08/20 04:28:07;;;;;;;14.80;6.50;;;;;;;17.37;60.87;99010.56;112242;1199;94898;-71
2021/08/20 04:30:35;;;;;;;16.50;6.80;;;;;;;17.32;61.05;99013.97;112180;1204;108278;-70
2021/08/20 04:33:03;;;;;;;15.60;6.40;;;;;;;17.29;61.02;99011.76;112249;1198;94025;-71
2021/08/20 04:35:31;;;;;;;15.50;6.70;;;;;;;17.27;61.28;99013.36;112216;1204;107400;-71
2021/08/20 04:38:00;;;;;;;18.40;5.90;;;;;;;17.28;61.33;99011.32;112199;1198;94975;-71
2021/08/20 04:40:28;;;;;;;14.20;6.00;;;;;;;17.30;61.36;99010.23;112244;1198;94997;-70
2021/08/20 04:42:55;;;;;;;15.40;6.40;;;;;;;17.35;61.37;99010.26;112238;1204;108057;-71
2021/08/20 04:45:23;;;;;;;16.70;6.40;;;;;;;17.38;61.40;99009.73;112277;1204;94863;-70
2021/08/20 04:47:51;;;;;;;15.40;6.40;;;;;;;17.41;61.44;99009.96;112264;1205;107440;-69
2021/08/20 04:50:19;;;;;;;17.70;6.50;;;;;;;17.44;61.53;99011.10;112245;1205;94906;-71
2021/08/20 04:52:47;;;;;;;15.40;6.90;;;;;;;17.48;61.60;99009.64;112274;1204;94155;-69
2021/08/20 04:55:16;;;;;;;18.60;6.70;;;;;;;17.50;61.62;99007.78;112206;1205;108502;-71
2021/08/20 04:57:44;;;;;;;15.80;6.50;;;;;;;17.52;61.59;99010.48;112251;1205;94140;-70
2021/08/20 05:00:12;;;;;;;17.70;6.40;;;;;;;17.54;61.61;99010.96;112227;1205;107429;-71
2021/08/20 05:02:40;;;;;;;18.60;6.40;;;;;;;17.57;61.68;99012.41;112230;1205;94041;-70
2021/08/20 05:05:14;;;;;;;19.20;7.10;;;;;;;17.60;61.69;99013.80;112259;1198;94951;-72
2021/08/20 05:07:42;;;;;;;16.80;7.10;;;;;;;17.62;61.84;99018.73;112237;1204;110093;-72
2021/08/20 05:10:12;;;;;;;17.10;6.60;;;;;;;17.62;61.79;99015.71;112298;1205;94622;-72
2021/08/20 05:12:41;;;;;;;17.00;6.60;;;;;;;17.62;61.73;99017.88;112240;1204;107426;-73
2021/08/20 05:15:09;;;;;;;18.20;6.50;;;;;;;17.64;61.96;99019.64;112236;1198;96240;-72
2021/08/20 05:17:37;;;;;;;16.10;6.70;;;;;;;17.67;61.89;99020.56;112214;1205;93915;-71
2021/08/20 05:20:07;;;;;;;14.70;6.00;;;;;;;17.70;61.84;99025.15;112247;1205;109756;-72
2021/08/20 05:22:44;;;;;;;15.00;6.30;;;;;;;17.71;61.87;99023.38;112263;1205;96284;-73
2021/08/20 05:25:14;;;;;;;17.00;6.50;;;;;;;17.74;62.04;99025.80;112218;1205;107441;-76
2021/08/20 05:27:42;;;;;;;24.20;6.40;;;;;;;17.77;61.93;99022.27;112261;1197;93997;-72
2021/08/20 05:30:12;;;;;;;18.60;6.50;;;;;;;17.82;62.16;99025.55;112235;1205;96304;-72
2021/08/20 05:32:40;;;;;;;16.40;6.70;;;;;;;17.84;62.06;99021.70;112266;1205;109772;-72
2021/08/20 05:35:11;;;;;;;18.70;7.10;;;;;;;17.87;62.09;99021.91;112218;1204;97360;-73
2021/08/20 05:37:39;;;;;;;18.30;6.80;;;;;;;17.91;62.11;99021.76;112198;1205;107459;-74
2021/08/20 05:40:09;;;;;;;20.20;6.40;;;;;;;17.93;62.05;99024.89;112176;1198;96355;-74
2021/08/20 05:42:37;;;;;;;13.40;5.80;;;;;;;17.94;62.06;99026.92;112244;1204;93949;-74
2021/08/20 05:45:07;;;;;;;15.30;6.10;;;;;;;17.94;62.02;99030.31;112203;1205;109716;-74
2021/08/20 05:47:36;;;;;;;17.00;6.20;;;;;;;17.96;62.12;99033.00;112209;1205;96401;-72
2021/08/20 05:50:05;;;;;;;16.30;6.60;;;;;;;17.99;62.15;99040.06;112227;1205;107423;-74
2021/08/20 05:52:38;;;;;;;15.50;6.10;;;;;;;18.04;62.29;99044.48;112261;1205;96355;-73
2021/08/20 05:55:08;;;;;;;17.40;7.00;;;;;;;18.06;62.45;99044.20;112248;1205;96218;-72
2021/08/20 05:57:36;;;;;;;17.60;6.20;;;;;;;18.09;62.35;99051.42;112188;1197;109745;-71
2021/08/20 06:00:08;;;;;;;15.00;6.20;;;;;;;18.10;62.36;99053.52;112194;1198;96647;-72
2021/08/20 06:02:41;;;;;;;15.90;6.30;;;;;;;18.12;62.29;99054.13;112206;1199;107506;-73
2021/08/20 06:05:10;;;;;;;15.90;6.00;;;;;;;18.14;62.32;99054.20;112255;1198;96334;-72
2021/08/20 06:07:38;;;;;;;15.00;5.90;;;;;;;18.12;62.30;99054.19;112199;1205;94985;-74
2021/08/20 06:10:08;;;;;;;18.50;7.10;;;;;;;18.12;62.47;99053.99;112248;1205;109767;-73
2021/08/20 06:12:36;;;;;;;17.00;6.40;;;;;;;18.14;62.47;99057.02;112252;1204;96866;-73
2021/08/20 06:15:06;;;;;;;14.20;6.30;;;;;;;18.16;62.47;99057.91;112244;1205;107389;-72
2021/08/20 06:17:33;;;;;;;17.00;6.10;;;;;;;18.16;62.51;99056.32;112240;1205;93963;-72
2021/08/20 06:20:04;;;;;;;14.40;6.40;;;;;;;18.18;62.59;99056.63;112257;1199;96332;-71
2021/08/20 06:22:32;;;;;;;17.00;7.30;;;;;;;18.20;62.66;99058.60;112238;1205;109234;-73
2021/08/20 06:25:00;;;;;;;15.10;6.60;;;;;;;18.22;62.52;99051.77;112304;1205;93932;-72
2021/08/20 06:27:27;;;;;;;16.00;6.00;;;;;;;18.24;62.74;99051.65;112253;1198;107901;-74
2021/08/20 06:29:55;;;;;;;15.20;6.00;;;;;;;18.28;62.56;99050.77;112206;1205;96313;-75
2021/08/20 06:32:23;;;;;;;15.60;6.20;;;;;;;18.34;62.71;99051.25;112207;1205;96220;-73
2021/08/20 06:34:51;;;;;;;14.10;5.90;;;;;;;18.40;62.80;99049.52;112260;1205;109812;-75
2021/08/20 06:37:19;;;;;;;16.20;5.80;;;;;;;18.46;62.70;99047.97;112190;1205;94022;-74
2021/08/20 06:39:47;;;;;;;15.90;6.50;;;;;;;18.52;62.76;99048.23;112171;1198;107413;-71
2021/08/20 06:42:15;;;;;;;14.10;5.90;;;;;;;18.57;62.74;99044.27;112248;1202;93951;-72
2021/08/20 06:44:43;;;;;;;14.30;6.00;;;;;;;18.62;62.79;99050.70;112182;1200;96176;-72
2021/08/20 06:47:12;;;;;;;16.30;6.00;;;;;;;18.69;62.80;99047.70;112197;1203;109336;-72
2021/08/20 06:49:41;;;;;;;15.20;6.10;;;;;;;18.77;62.80;99048.64;112268;1198;95332;-71
2021/08/20 06:52:10;;;;;;;21.60;6.30;;;;;;;18.84;62.65;99046.81;112267;1205;107579;-72
2021/08/20 06:54:38;;;;;;;14.90;5.90;;;;;;;18.92;62.73;99045.45;112226;1203;96298;-72
2021/08/20 06:57:05;;;;;;;18.10;6.90;;;;;;;18.99;62.80;99048.08;112257;1205;93879;-70
2021/08/20 06:59:34;;;;;;;14.30;6.20;;;;;;;19.08;62.84;99045.84;112219;1205;109546;-72
2021/08/20 07:02:02;;;;;;;15.60;6.10;;;;;;;19.18;62.79;99045.63;112232;1201;94381;-75
2021/08/20 07:04:31;;;;;;;16.40;6.40;;;;;;;19.27;62.73;99044.33;112244;1205;107908;-72
2021/08/20 07:06:58;;;;;;;13.90;6.30;;;;;;;19.38;62.71;99046.23;112258;1205;96300;-71
2021/08/20 07:09:26;;;;;;;16.30;6.40;;;;;;;19.48;62.61;99048.73;112252;1198;96208;-71
2021/08/20 07:11:54;;;;;;;15.60;6.30;;;;;;;19.56;62.63;99052.30;112228;1205;109682;-70
2021/08/20 07:14:22;;;;;;;14.70;6.00;;;;;;;19.62;62.52;99056.14;112149;1207;96924;-70
2021/08/20 07:16:50;;;;;;;17.90;6.60;;;;;;;19.67;62.54;99059.09;112240;1205;107485;-72
2021/08/20 07:19:18;;;;;;;14.90;5.90;;;;;;;19.71;62.56;99065.05;112228;1199;96243;-77
2021/08/20 07:21:45;;;;;;;13.00;5.80;;;;;;;19.79;62.74;99067.27;112265;1205;96209;-74
2021/08/20 07:24:13;;;;;;;12.80;5.90;;;;;;;19.87;62.74;99070.03;112215;1198;109778;-76
2021/08/20 07:26:41;;;;;;;17.70;6.70;;;;;;;19.93;62.78;99068.27;112269;1204;96309;-81
2021/08/20 07:29:09;;;;;;;21.80;8.10;;;;;;;19.98;62.64;99066.63;112260;1197;107487;-75
2021/08/20 07:31:37;;;;;;;19.40;7.20;;;;;;;20.04;62.79;99070.41;112277;1205;96245;-75
2021/08/20 07:34:04;;;;;;;14.90;6.80;;;;;;;20.09;62.76;99071.31;112176;1204;93929;-74
2021/08/20 07:36:33;;;;;;;16.90;6.60;;;;;;;20.14;62.70;99074.98;112170;1205;109716;-78
2021/08/20 07:39:01;;;;;;;18.10;7.10;;;;;;;20.16;62.41;99074.00;112116;1205;93945;-80
2021/08/20 07:41:29;;;;;;;17.50;6.60;;;;;;;20.13;62.32;99075.77;112166;1205;105630;-73
2021/08/20 07:43:57;;;;;;;18.40;8.30;;;;;;;20.10;62.23;99072.63;112170;1205;96241;-77
2021/08/20 07:46:25;;;;;;;16.50;6.80;;;;;;;20.07;62.32;99071.42;112266;1204;96269;-76
2021/08/20 07:48:53;;;;;;;15.40;6.70;;;;;;;20.05;62.14;99073.21;112384;1204;110157;-72
2021/08/20 07:51:21;;;;;;;18.90;7.60;;;;;;;20.01;62.20;99070.02;112415;1202;96221;-73
2021/08/20 07:53:49;;;;;;;18.30;7.40;;;;;;;19.99;62.18;99076.60;112277;1203;108317;-79
2021/08/20 07:56:17;;;;;;;19.50;8.60;;;;;;;19.97;62.13;99075.57;112339;1196;96217;-75
2021/08/20 07:58:45;;;;;;;17.10;8.10;;;;;;;19.95;62.22;99080.46;112318;1200;96312;-80
2021/08/20 08:01:12;;;;;;;17.60;7.80;;;;;;;19.96;62.09;99076.45;112372;1203;109415;-75
2021/08/20 08:03:44;;;;;;;19.80;10.00;;;;;;;19.97;62.29;99078.10;112352;1195;96186;-77
2021/08/20 08:06:14;;;;;;;21.50;8.70;;;;;;;19.98;62.28;99075.83;112331;1205;107396;-73
2021/08/20 08:08:44;;;;;;;18.80;8.10;;;;;;;20.00;62.09;99076.50;112382;1198;96269;-79
2021/08/20 08:11:12;;;;;;;19.30;7.70;;;;;;;20.01;62.06;99078.11;112377;1205;96214;-74
2021/08/20 08:13:40;;;;;;;19.40;8.70;;;;;;;20.03;61.95;99084.93;112088;1196;108816;-75
2021/08/20 08:16:08;;;;;;;18.40;7.80;;;;;;;20.04;61.81;99085.98;112358;1202;96230;-72
2021/08/20 08:18:38;;;;;;;17.70;7.80;;;;;;;20.06;61.92;99081.35;112424;1202;107352;-69
2021/08/20 08:21:06;;;;;;;19.50;8.20;;;;;;;20.12;61.81;99081.51;112364;1195;96322;-70
2021/08/20 08:23:33;;;;;;;17.90;7.80;;;;;;;20.17;61.98;99079.27;112296;1195;94693;-71
2021/08/20 08:26:04;;;;;;;20.50;8.40;;;;;;;20.23;62.03;99081.05;112351;1203;109691;-72
2021/08/20 08:28:32;;;;;;;19.00;8.80;;;;;;;20.29;62.15;99080.30;112410;1204;96305;-70
2021/08/20 08:31:02;;;;;;;19.60;8.40;;;;;;;20.34;62.16;99074.58;112395;1206;107462;-72
2021/08/20 08:33:32;;;;;;;15.40;6.90;;;;;;;20.43;62.12;99077.91;112366;1202;94690;-67
2021/08/20 08:36:04;;;;;;;16.80;6.60;;;;;;;20.52;61.93;99076.73;112418;1204;96327;-66
2021/08/20 08:38:34;;;;;;;14.80;6.60;;;;;;;20.60;61.86;99083.23;112358;1202;110489;-67
2021/08/20 08:41:05;;;;;;;16.80;7.20;;;;;;;20.68;61.86;99082.12;112370;1200;96288;-65
2021/08/20 08:43:32;;;;;;;16.00;7.00;;;;;;;20.78;61.80;99082.33;112261;1204;107611;-69
2021/08/20 08:46:05;;;;;;;15.60;6.90;;;;;;;20.88;61.74;99086.36;112364;1207;94048;-66
2021/08/20 08:48:40;;;;;;;17.10;6.60;;;;;;;20.99;61.84;99082.98;112346;1200;96978;-65
2021/08/20 08:51:11;;;;;;;15.40;7.20;;;;;;;21.09;61.89;99083.05;112300;1205;109837;-67
2021/08/20 08:53:39;;;;;;;15.90;6.60;;;;;;;21.18;61.82;99083.13;112213;1204;96350;-67
2021/08/20 08:56:07;;;;;;;15.10;6.30;;;;;;;21.27;61.51;99077.88;112178;1200;108018;-67
2021/08/20 08:58:37;;;;;;;12.30;5.50;;;;;;;21.36;61.46;99080.26;112195;1204;95035;-68
2021/08/20 09:01:26;;;;;;;12.30;5.70;;;;;;;21.47;61.43;99082.77;112242;1203;96208;-66
2021/08/20 09:04:11;;;;;;;14.40;6.30;;;;;;;21.61;61.59;99080.96;112370;1202;111335;-69
2021/08/20 09:06:43;;;;;;;12.80;5.80;;;;;;;21.73;61.36;99076.16;112349;1203;93919;-68
2021/08/20 09:09:16;;;;;;;14.70;6.00;;;;;;;21.87;61.20;99077.92;112239;1202;108006;-68
2021/08/20 09:11:51;;;;;;;14.10;5.50;;;;;;;22.01;61.17;99079.05;112350;1196;96727;-68
2021/08/20 09:14:33;;;;;;;11.00;5.30;;;;;;;22.15;61.12;99076.75;112396;1203;96375;-66
2021/08/20 09:17:04;;;;;;;9.60;5.20;;;;;;;22.30;61.09;99079.05;112442;1202;110929;-69
2021/08/20 09:19:32;;;;;;;10.90;5.40;;;;;;;22.48;60.96;99078.55;112395;1202;96191;-66
2021/08/20 09:22:09;;;;;;;15.40;5.30;;;;;;;22.62;60.79;99077.55;112343;1202;108015;-70
2021/08/20 09:24:44;;;;;;;12.40;5.10;;;;;;;22.73;60.63;99077.04;112317;1202;96341;-66
2021/08/20 09:27:15;;;;;;;15.70;5.80;;;;;;;22.86;60.72;99078.41;112369;1202;96312;-70
2021/08/20 09:29:57;;;;;;;17.50;5.60;;;;;;;22.97;60.50;99081.02;112323;1200;109359;-67
2021/08/20 09:32:28;;;;;;;10.90;5.20;;;;;;;23.08;60.50;99083.08;112376;1202;96195;-68
2021/08/20 09:34:58;;;;;;;12.40;5.40;;;;;;;23.15;60.29;99083.11;112381;1202;108019;-68
2021/08/20 09:37:31;;;;;;;12.90;5.70;;;;;;;23.24;60.18;99084.89;112339;1200;94418;-67
2021/08/20 09:40:08;;;;;;;12.40;5.40;;;;;;;23.34;60.02;99084.98;112407;1205;96190;-67
2021/08/20 09:42:39;;;;;;;14.80;5.90;;;;;;;23.46;59.83;99077.98;112336;1202;110641;-67
2021/08/20 09:45:12;;;;;;;12.30;5.20;;;;;;;23.63;59.74;99078.21;112228;1199;97693;-69
2021/08/20 09:47:55;;;;;;;12.30;4.80;;;;;;;23.81;59.46;99076.31;112306;1202;107999;-68
2021/08/20 09:50:45;;;;;;;17.00;5.60;;;;;;;23.99;59.55;99079.26;112317;1197;96227;-70
2021/08/20 09:53:16;;;;;;;14.80;5.90;;;;;;;24.13;59.38;99078.50;112290;1203;96318;-69
2021/08/20 09:55:45;;;;;;;17.20;6.60;;;;;;;24.27;59.22;99076.41;112225;1202;110604;-70
2021/08/20 09:58:15;;;;;;;15.60;6.20;;;;;;;24.37;59.32;99072.54;112185;1202;94967;-69
2021/08/20 10:00:45;;;;;;;14.40;6.00;;;;;;;24.45;58.99;99076.02;112282;1206;106719;-68
2021/08/20 10:03:17;;;;;;;11.70;5.90;;;;;;;24.47;58.86;99074.38;112310;1202;96939;-71
2021/08/20 10:05:50;;;;;;;14.00;6.20;;;;;;;24.47;58.59;99073.83;112260;1199;96209;-68
2021/08/20 10:08:18;;;;;;;19.90;6.60;;;;;;;24.50;58.48;99065.36;112363;1203;110702;-70
2021/08/20 10:10:51;;;;;;;13.40;6.40;;;;;;;24.55;58.37;99065.63;112439;1200;96485;-68
2021/08/20 10:13:21;;;;;;;12.10;5.90;;;;;;;24.61;58.33;99059.89;112403;1202;108200;-69
2021/08/20 10:15:49;;;;;;;13.90;6.10;;;;;;;24.65;58.22;99055.17;112364;1195;96242;-70
2021/08/20 10:18:19;;;;;;;14.50;6.00;;;;;;;24.76;58.00;99051.51;112100;1202;96700;-71
2021/08/20 10:20:49;;;;;;;17.20;6.20;;;;;;;24.90;58.06;99051.45;112297;1203;111310;-72
2021/08/20 10:23:18;;;;;;;13.00;6.30;;;;;;;25.00;57.71;99055.25;112190;1196;96575;-74
2021/08/20 10:25:47;;;;;;;13.50;5.80;;;;;;;25.10;57.42;99049.40;112173;1196;107389;-69
2021/08/20 10:28:16;;;;;;;13.50;5.80;;;;;;;25.22;57.59;99054.98;112094;1195;96868;-73
2021/08/20 10:30:45;;;;;;;11.30;5.40;;;;;;;25.30;57.11;99048.88;112155;1197;96196;-69
2021/08/20 10:33:14;;;;;;;13.20;6.50;;;;;;;25.38;57.13;99051.39;112264;1203;109691;-71
2021/08/20 10:35:49;;;;;;;11.80;5.80;;;;;;;25.41;56.96;99048.05;112275;1202;96532;-69
2021/08/20 10:38:29;;;;;;;10.30;5.20;;;;;;;25.41;56.49;99048.97;112237;1202;108105;-69
2021/08/20 10:41:10;;;;;;;14.60;5.90;;;;;;;25.46;56.61;99052.02;112276;1202;96227;-68
2021/08/20 10:43:58;;;;;;;13.00;5.00;;;;;;;25.52;56.19;99050.09;112292;1200;96251;-68
2021/08/20 10:46:36;;;;;;;12.10;5.30;;;;;;;25.53;55.98;99048.07;112148;1202;110343;-69
2021/08/20 10:49:20;;;;;;;11.60;5.30;;;;;;;25.55;55.94;99049.33;112310;1203;96422;-70
2021/08/20 10:51:48;;;;;;;13.70;5.10;;;;;;;25.57;55.75;99053.06;112225;1205;107466;-71
2021/08/20 10:54:17;;;;;;;11.00;4.70;;;;;;;25.49;55.43;99051.60;112429;1202;96247;-69
2021/08/20 10:56:45;;;;;;;12.00;5.20;;;;;;;25.43;55.42;99051.22;112340;1196;93965;-70
2021/08/20 10:59:39;;;;;;;11.10;4.90;;;;;;;25.41;55.20;99046.55;112288;1202;109767;-70
2021/08/20 11:02:19;;;;;;;11.70;4.70;;;;;;;25.40;55.17;99043.98;112268;1202;96599;-70
2021/08/20 11:04:55;;;;;;;11.90;5.00;;;;;;;25.39;54.97;99046.41;112225;1204;106910;-72
2021/08/20 11:07:38;;;;;;;12.20;5.00;;;;;;;25.43;54.76;99042.27;112227;1202;95121;-70
2021/08/20 11:10:09;;;;;;;8.50;4.20;;;;;;;25.41;54.55;99040.36;112293;1198;96693;-69
2021/08/20 11:12:43;;;;;;;11.80;4.60;;;;;;;25.37;54.45;99042.05;112289;1202;110530;-67
2021/08/20 11:15:17;;;;;;;12.40;4.70;;;;;;;25.40;54.52;99035.98;112308;1203;96516;-70
2021/08/20 11:17:59;;;;;;;9.60;4.00;;;;;;;25.44;54.16;99037.58;112302;1202;108106;-70
2021/08/20 11:20:27;;;;;;;8.60;4.70;;;;;;;25.48;53.98;99035.26;112249;1195;96300;-69
2021/08/20 11:23:13;;;;;;;9.30;4.30;;;;;;;25.55;54.02;99035.46;112305;1202;94016;-69
2021/08/20 11:25:42;;;;;;;10.30;4.50;;;;;;;25.57;53.84;99040.20;112308;1202;109809;-71
2021/08/20 11:28:20;;;;;;;9.20;4.80;;;;;;;25.58;53.69;99036.27;112284;1195;94922;-69